sensor_id;sensor_type;location;lat;lon;timestamp;pressure;altitude;pressure_sealevel;temperature;humidity
65997;BME280;52765;52.258;21.052;2023-09-19T00:00:33;99980.69;;;19.12;100.00
65997;BME280;52765;52.258;21.052;2023-09-19T00:02:59;99983.19;;;19.13;100.00
65997;BME280;52765;52.258;21.052;2023-09-19T00:05:25;99979.63;;;19.13;100.00
65997;BME280;52765;52.258;21.052;2023-09-19T00:07:54;99980.47;;;19.13;100.00
65997;BME280;52765;52.258;21.052;2023-09-19T00:10:23;99979.25;;;19.09;100.00
65997;BME280;52765;52.258;21.052;2023-09-19T00:12:50;99983.25;;;19.07;100.00
65997;BME280;52765;52.258;21.052;2023-09-19T00:15:17;99978.00;;;19.05;100.00
65997;BME280;52765;52.258;21.052;2023-09-19T00:17:43;99973.63;;;19.04;100.00
65997;BME280;52765;52.258;21.052;2023-09-19T00:20:09;99975.75;;;19.02;100.00
65997;BME280;52765;52.258;21.052;2023-09-19T00:22:41;99975.28;;;19.05;100.00
65997;BME280;52765;52.258;21.052;2023-09-19T00:25:08;99968.59;;;19.01;100.00
65997;BME280;52765;52.258;21.052;2023-09-19T00:27:35;99960.84;;;18.98;100.00
65997;BME280;52765;52.258;21.052;2023-09-19T00:30:01;99970.50;;;19.00;100.00
65997;BME280;52765;52.258;21.052;2023-09-19T00:32:26;99981.03;;;18.97;100.00
65997;BME280;52765;52.258;21.052;2023-09-19T00:34:57;99976.00;;;18.94;100.00
65997;BME280;52765;52.258;21.052;2023-09-19T00:37:23;99969.31;;;18.90;100.00
65997;BME280;52765;52.258;21.052;2023-09-19T00:39:48;99973.34;;;18.87;100.00
65997;BME280;52765;52.258;21.052;2023-09-19T00:42:19;99966.19;;;18.86;100.00
65997;BME280;52765;52.258;21.052;2023-09-19T00:44:47;99969.13;;;18.84;100.00
65997;BME280;52765;52.258;21.052;2023-09-19T00:47:13;99954.03;;;18.82;100.00
65997;BME280;52765;52.258;21.052;2023-09-19T00:49:46;99955.28;;;18.79;100.00
65997;BME280;52765;52.258;21.052;2023-09-19T00:52:15;99948.38;;;18.77;100.00
65997;BME280;52765;52.258;21.052;2023-09-19T00:54:41;99952.16;;;18.76;100.00
65997;BME280;52765;52.258;21.052;2023-09-19T00:57:08;99961.63;;;18.73;100.00
65997;BME280;52765;52.258;21.052;2023-09-19T00:59:35;99956.38;;;18.72;100.00
65997;BME280;52765;52.258;21.052;2023-09-19T01:02:02;99964.97;;;18.75;100.00
65997;BME280;52765;52.258;21.052;2023-09-19T01:04:29;99953.22;;;18.75;100.00
65997;BME280;52765;52.258;21.052;2023-09-19T01:06:56;99950.91;;;18.72;100.00
65997;BME280;52765;52.258;21.052;2023-09-19T01:09:23;99951.59;;;18.67;100.00
65997;BME280;52765;52.258;21.052;2023-09-19T01:11:50;99944.47;;;18.66;100.00
65997;BME280;52765;52.258;21.052;2023-09-19T01:17:27;99937.16;;;18.60;100.00
65997;BME280;52765;52.258;21.052;2023-09-19T01:30:35;99926.47;;;18.58;100.00
65997;BME280;52765;52.258;21.052;2023-09-19T01:33:05;99914.31;;;18.54;100.00
65997;BME280;52765;52.258;21.052;2023-09-19T01:35:31;99922.06;;;18.57;100.00
65997;BME280;52765;52.258;21.052;2023-09-19T01:37:58;99922.28;;;18.56;100.00
65997;BME280;52765;52.258;21.052;2023-09-19T01:40:26;99916.84;;;18.56;100.00
65997;BME280;52765;52.258;21.052;2023-09-19T01:48:37;99907.59;;;18.57;100.00
65997;BME280;52765;52.258;21.052;2023-09-19T01:51:06;99901.53;;;18.55;100.00
65997;BME280;52765;52.258;21.052;2023-09-19T01:53:55;99906.53;;;18.58;100.00
65997;BME280;52765;52.258;21.052;2023-09-19T01:56:31;99899.41;;;18.57;100.00
65997;BME280;52765;52.258;21.052;2023-09-19T01:59:05;99895.84;;;18.56;100.00
65997;BME280;52765;52.258;21.052;2023-09-19T02:01:33;99890.59;;;18.55;100.00
65997;BME280;52765;52.258;21.052;2023-09-19T02:04:00;99894.19;;;18.55;100.00
65997;BME280;52765;52.258;21.052;2023-09-19T02:06:26;99891.47;;;18.55;100.00
65997;BME280;52765;52.258;21.052;2023-09-19T02:08:54;99901.75;;;18.53;100.00
65997;BME280;52765;52.258;21.052;2023-09-19T02:11:19;99897.13;;;18.54;100.00
65997;BME280;52765;52.258;21.052;2023-09-19T02:13:45;99890.22;;;18.51;100.00
65997;BME280;52765;52.258;21.052;2023-09-19T02:16:10;99894.41;;;18.54;100.00
65997;BME280;52765;52.258;21.052;2023-09-19T02:18:37;99894.00;;;18.50;100.00
65997;BME280;52765;52.258;21.052;2023-09-19T02:21:04;99890.44;;;18.49;100.00
65997;BME280;52765;52.258;21.052;2023-09-19T02:23:32;99894.47;;;18.47;100.00
65997;BME280;52765;52.258;21.052;2023-09-19T02:25:59;99889.03;;;18.40;100.00
65997;BME280;52765;52.258;21.052;2023-09-19T02:28:26;99886.31;;;18.40;100.00
65997;BME280;52765;52.258;21.052;2023-09-19T02:30:55;99884.84;;;18.38;100.00
65997;BME280;52765;52.258;21.052;2023-09-19T02:33:21;99888.84;;;18.35;100.00
65997;BME280;52765;52.258;21.052;2023-09-19T02:35:47;99868.75;;;18.29;100.00
65997;BME280;52765;52.258;21.052;2023-09-19T02:38:12;99869.16;;;18.33;100.00
65997;BME280;52765;52.258;21.052;2023-09-19T02:40:38;99870.00;;;18.34;100.00
65997;BME280;52765;52.258;21.052;2023-09-19T02:43:03;99864.97;;;18.30;100.00
65997;BME280;52765;52.258;21.052;2023-09-19T02:45:30;99865.19;;;18.29;100.00
65997;BME280;52765;52.258;21.052;2023-09-19T02:47:55;99859.13;;;18.27;100.00
65997;BME280;52765;52.258;21.052;2023-09-19T02:50:21;99862.50;;;18.22;100.00
65997;BME280;52765;52.258;21.052;2023-09-19T02:52:47;99866.50;;;18.20;100.00
65997;BME280;52765;52.258;21.052;2023-09-19T02:55:14;99863.59;;;18.15;100.00
65997;BME280;52765;52.258;21.052;2023-09-19T02:57:53;99849.97;;;18.15;100.00
65997;BME280;52765;52.258;21.052;2023-09-19T03:00:22;99851.69;;;18.09;100.00
65997;BME280;52765;52.258;21.052;2023-09-19T03:02:53;99855.69;;;18.06;100.00
65997;BME280;52765;52.258;21.052;2023-09-19T03:05:20;99858.44;;;18.00;100.00
65997;BME280;52765;52.258;21.052;2023-09-19T03:07:47;99848.59;;;17.99;100.00
65997;BME280;52765;52.258;21.052;2023-09-19T03:10:16;99843.59;;;17.96;100.00
65997;BME280;52765;52.258;21.052;2023-09-19T03:12:41;99837.28;;;17.95;100.00
65997;BME280;52765;52.258;21.052;2023-09-19T03:15:07;99837.97;;;17.90;100.00
65997;BME280;52765;52.258;21.052;2023-09-19T03:17:34;99841.72;;;17.89;100.00
65997;BME280;52765;52.258;21.052;2023-09-19T03:19:59;99834.38;;;17.90;100.00
65997;BME280;52765;52.258;21.052;2023-09-19T03:22:26;99843.84;;;17.87;100.00
65997;BME280;52765;52.258;21.052;2023-09-19T03:24:52;99841.72;;;17.83;100.00
65997;BME280;52765;52.258;21.052;2023-09-19T03:27:18;99844.44;;;17.83;100.00
65997;BME280;52765;52.258;21.052;2023-09-19T03:29:44;99852.84;;;17.81;100.00
65997;BME280;52765;52.258;21.052;2023-09-19T03:32:09;99840.69;;;17.84;100.00
65997;BME280;52765;52.258;21.052;2023-09-19T03:34:38;99842.34;;;17.85;100.00
65997;BME280;52765;52.258;21.052;2023-09-19T03:37:08;99840.25;;;17.87;100.00
65997;BME280;52765;52.258;21.052;2023-09-19T03:39:34;99833.75;;;17.88;100.00
65997;BME280;52765;52.258;21.052;2023-09-19T03:41:59;99832.91;;;17.94;100.00
65997;BME280;52765;52.258;21.052;2023-09-19T03:44:24;99834.13;;;17.98;100.00
65997;BME280;52765;52.258;21.052;2023-09-19T03:46:50;99833.69;;;18.01;100.00
65997;BME280;52765;52.258;21.052;2023-09-19T03:49:15;99827.41;;;18.01;100.00
65997;BME280;52765;52.258;21.052;2023-09-19T03:51:41;99821.34;;;17.99;100.00
65997;BME280;52765;52.258;21.052;2023-09-19T03:54:09;99820.28;;;18.00;100.00
65997;BME280;52765;52.258;21.052;2023-09-19T03:56:34;99822.41;;;17.98;100.00
65997;BME280;52765;52.258;21.052;2023-09-19T03:59:00;99833.28;;;17.98;100.00
65997;BME280;52765;52.258;21.052;2023-09-19T04:01:25;99823.22;;;17.98;100.00
65997;BME280;52765;52.258;21.052;2023-09-19T04:03:53;99818.63;;;17.99;100.00
65997;BME280;52765;52.258;21.052;2023-09-19T04:06:19;99823.00;;;18.00;100.00
65997;BME280;52765;52.258;21.052;2023-09-19T04:08:45;99815.25;;;17.97;100.00
65997;BME280;52765;52.258;21.052;2023-09-19T04:11:12;99816.13;;;17.97;100.00
65997;BME280;52765;52.258;21.052;2023-09-19T04:13:38;99808.78;;;17.98;100.00
65997;BME280;52765;52.258;21.052;2023-09-19T04:16:03;99819.47;;;17.99;100.00
65997;BME280;52765;52.258;21.052;2023-09-19T04:18:29;99804.38;;;17.97;100.00
65997;BME280;52765;52.258;21.052;2023-09-19T04:20:58;99801.22;;;18.00;100.00
65997;BME280;52765;52.258;21.052;2023-09-19T04:23:23;99810.47;;;17.99;100.00
65997;BME280;52765;52.258;21.052;2023-09-19T04:25:49;99798.91;;;17.97;100.00
65997;BME280;52765;52.258;21.052;2023-09-19T04:28:14;99791.84;;;17.89;100.00
65997;BME280;52765;52.258;21.052;2023-09-19T04:30:40;99795.63;;;17.88;100.00
65997;BME280;52765;52.258;21.052;2023-09-19T04:33:06;99787.03;;;17.84;100.00
65997;BME280;52765;52.258;21.052;2023-09-19T04:35:32;99792.06;;;17.81;100.00
65997;BME280;52765;52.258;21.052;2023-09-19T04:37:57;99799.19;;;17.82;100.00
65997;BME280;52765;52.258;21.052;2023-09-19T04:40:23;99800.84;;;17.83;100.00
65997;BME280;52765;52.258;21.052;2023-09-19T04:42:58;99791.44;;;17.85;100.00
65997;BME280;52765;52.258;21.052;2023-09-19T04:45:27;99792.25;;;17.86;100.00
65997;BME280;52765;52.258;21.052;2023-09-19T04:47:53;99794.78;;;17.87;100.00
65997;BME280;52765;52.258;21.052;2023-09-19T04:50:20;99790.16;;;17.88;100.00
65997;BME280;52765;52.258;21.052;2023-09-19T04:52:49;99789.31;;;17.94;100.00
65997;BME280;52765;52.258;21.052;2023-09-19T04:55:16;99784.47;;;17.96;100.00
65997;BME280;52765;52.258;21.052;2023-09-19T05:00:15;99783.00;;;18.00;100.00
65997;BME280;52765;52.258;21.052;2023-09-19T05:02:42;99780.00;;;18.02;100.00
65997;BME280;52765;52.258;21.052;2023-09-19T05:05:09;99783.38;;;18.04;100.00
65997;BME280;52765;52.258;21.052;2023-09-19T05:07:40;99784.59;;;18.08;100.00
65997;BME280;52765;52.258;21.052;2023-09-19T05:10:07;99779.53;;;18.11;100.00
65997;BME280;52765;52.258;21.052;2023-09-19T05:12:35;99774.25;;;18.17;100.00
65997;BME280;52765;52.258;21.052;2023-09-19T05:15:02;99783.91;;;18.19;100.00
65997;BME280;52765;52.258;21.052;2023-09-19T05:17:28;99778.19;;;18.27;100.00
65997;BME280;52765;52.258;21.052;2023-09-19T05:20:01;99772.22;;;18.37;100.00
65997;BME280;52765;52.258;21.052;2023-09-19T05:22:41;99777.84;;;18.42;100.00
65997;BME280;52765;52.258;21.052;2023-09-19T05:25:07;99771.97;;;18.45;100.00
65997;BME280;52765;52.258;21.052;2023-09-19T05:27:32;99770.66;;;18.48;100.00
65997;BME280;52765;52.258;21.052;2023-09-19T05:29:59;99770.81;;;18.53;100.00
65997;BME280;52765;52.258;21.052;2023-09-19T05:32:24;99774.56;;;18.59;100.00
65997;BME280;52765;52.258;21.052;2023-09-19T05:34:50;99772.88;;;18.58;100.00
65997;BME280;52765;52.258;21.052;2023-09-19T05:37:19;99775.41;;;18.59;100.00
65997;BME280;52765;52.258;21.052;2023-09-19T05:39:44;99777.28;;;18.59;100.00
65997;BME280;52765;52.258;21.052;2023-09-19T05:42:10;99771.19;;;18.57;100.00
65997;BME280;52765;52.258;21.052;2023-09-19T05:44:35;99775.41;;;18.59;100.00
65997;BME280;52765;52.258;21.052;2023-09-19T05:47:02;99766.16;;;18.60;100.00
65997;BME280;52765;52.258;21.052;2023-09-19T05:49:28;99764.63;;;18.64;100.00
65997;BME280;52765;52.258;21.052;2023-09-19T05:51:53;99760.44;;;18.68;100.00
65997;BME280;52765;52.258;21.052;2023-09-19T05:54:20;99762.69;;;18.72;100.00
65997;BME280;52765;52.258;21.052;2023-09-19T05:56:46;99763.53;;;18.72;100.00
65997;BME280;52765;52.258;21.052;2023-09-19T05:59:17;99753.59;;;18.78;100.00
65997;BME280;52765;52.258;21.052;2023-09-19T06:01:43;99743.03;;;18.88;100.00
65997;BME280;52765;52.258;21.052;2023-09-19T06:04:08;99753.19;;;18.99;100.00
65997;BME280;52765;52.258;21.052;2023-09-19T06:06:34;99759.19;;;19.08;100.00
65997;BME280;52765;52.258;21.052;2023-09-19T06:09:04;99756.81;;;19.12;100.00
65997;BME280;52765;52.258;21.052;2023-09-19T06:11:31;99766.84;;;19.18;100.00
65997;BME280;52765;52.258;21.052;2023-09-19T06:14:00;99778.50;;;19.25;100.00
65997;BME280;52765;52.258;21.052;2023-09-19T06:16:30;99775.97;;;19.30;100.00
65997;BME280;52765;52.258;21.052;2023-09-19T06:18:57;99784.75;;;19.32;100.00
65997;BME280;52765;52.258;21.052;2023-09-19T06:21:22;99801.88;;;19.39;100.00
65997;BME280;52765;52.258;21.052;2023-09-19T06:23:48;99793.00;;;19.44;100.00
65997;BME280;52765;52.258;21.052;2023-09-19T06:26:14;99805.75;;;19.50;100.00
65997;BME280;52765;52.258;21.052;2023-09-19T06:28:40;99803.19;;;19.55;100.00
65997;BME280;52765;52.258;21.052;2023-09-19T06:31:06;99806.28;;;19.59;100.00
65997;BME280;52765;52.258;21.052;2023-09-19T06:33:35;99803.84;;;19.69;100.00
65997;BME280;52765;52.258;21.052;2023-09-19T06:36:04;99806.28;;;19.77;100.00
65997;BME280;52765;52.258;21.052;2023-09-19T06:38:30;99802.63;;;19.84;100.00
65997;BME280;52765;52.258;21.052;2023-09-19T06:40:56;99798.72;;;19.91;100.00
65997;BME280;52765;52.258;21.052;2023-09-19T06:43:22;99809.25;;;20.06;100.00
65997;BME280;52765;52.258;21.052;2023-09-19T06:45:49;99802.16;;;20.17;100.00
65997;BME280;52765;52.258;21.052;2023-09-19T06:48:16;99804.09;;;20.28;99.63
65997;BME280;52765;52.258;21.052;2023-09-19T06:50:42;99807.91;;;20.39;98.98
65997;BME280;52765;52.258;21.052;2023-09-19T06:53:09;99812.44;;;20.45;96.76
65997;BME280;52765;52.258;21.052;2023-09-19T06:55:35;99809.84;;;20.50;95.73
65997;BME280;52765;52.258;21.052;2023-09-19T06:58:04;99808.88;;;20.57;94.65
65997;BME280;52765;52.258;21.052;2023-09-19T07:00:31;99813.66;;;20.61;94.33
65997;BME280;52765;52.258;21.052;2023-09-19T07:03:05;99812.03;;;20.72;93.01
65997;BME280;52765;52.258;21.052;2023-09-19T07:05:34;99817.63;;;20.89;93.02
65997;BME280;52765;52.258;21.052;2023-09-19T07:08:03;99817.63;;;21.01;92.51
65997;BME280;52765;52.258;21.052;2023-09-19T07:10:29;99826.06;;;21.11;90.86
65997;BME280;52765;52.258;21.052;2023-09-19T07:13:03;99817.16;;;21.16;89.83
65997;BME280;52765;52.258;21.052;2023-09-19T07:15:32;99817.84;;;21.23;89.54
65997;BME280;52765;52.258;21.052;2023-09-19T07:17:58;99814.72;;;21.31;88.61
65997;BME280;52765;52.258;21.052;2023-09-19T07:20:26;99825.56;;;21.38;87.81
65997;BME280;52765;52.258;21.052;2023-09-19T07:22:52;99814.97;;;21.53;87.39
65997;BME280;52765;52.258;21.052;2023-09-19T07:25:21;99818.88;;;21.57;87.15
65997;BME280;52765;52.258;21.052;2023-09-19T07:27:47;99828.28;;;21.61;86.07
65997;BME280;52765;52.258;21.052;2023-09-19T07:30:12;99829.94;;;21.62;85.19
65997;BME280;52765;52.258;21.052;2023-09-19T07:32:39;99832.44;;;21.64;84.91
65997;BME280;52765;52.258;21.052;2023-09-19T07:35:06;99827.94;;;21.58;84.98
65997;BME280;52765;52.258;21.052;2023-09-19T07:37:32;99834.84;;;21.60;85.07
65997;BME280;52765;52.258;21.052;2023-09-19T07:40:07;99848.38;;;21.79;84.71
65997;BME280;52765;52.258;21.052;2023-09-19T07:42:37;99853.38;;;21.82;84.33
65997;BME280;52765;52.258;21.052;2023-09-19T07:45:04;99846.63;;;21.61;84.93
65997;BME280;52765;52.258;21.052;2023-09-19T07:47:30;99851.25;;;21.72;84.52
65997;BME280;52765;52.258;21.052;2023-09-19T07:49:58;99846.81;;;21.83;84.67
65997;BME280;52765;52.258;21.052;2023-09-19T07:52:24;99854.16;;;21.94;83.47
65997;BME280;52765;52.258;21.052;2023-09-19T07:54:49;99857.75;;;21.95;83.84
65997;BME280;52765;52.258;21.052;2023-09-19T07:57:15;99854.50;;;21.98;83.95
65997;BME280;52765;52.258;21.052;2023-09-19T07:59:41;99857.63;;;22.02;83.65
65997;BME280;52765;52.258;21.052;2023-09-19T08:02:10;99851.66;;;21.93;83.93
65997;BME280;52765;52.258;21.052;2023-09-19T08:04:42;99855.00;;;21.95;84.70
65997;BME280;52765;52.258;21.052;2023-09-19T08:07:07;99855.41;;;21.87;84.22
65997;BME280;52765;52.258;21.052;2023-09-19T08:09:34;99859.25;;;21.74;85.52
65997;BME280;52765;52.258;21.052;2023-09-19T08:11:59;99865.69;;;21.68;86.70
65997;BME280;52765;52.258;21.052;2023-09-19T08:14:28;99865.00;;;21.60;87.10
65997;BME280;52765;52.258;21.052;2023-09-19T08:16:58;99861.03;;;21.68;86.46
65997;BME280;52765;52.258;21.052;2023-09-19T08:19:24;99871.75;;;21.70;86.25
65997;BME280;52765;52.258;21.052;2023-09-19T08:21:55;99867.91;;;21.83;85.78
65997;BME280;52765;52.258;21.052;2023-09-19T08:24:29;99866.72;;;21.90;85.57
65997;BME280;52765;52.258;21.052;2023-09-19T08:26:56;99872.16;;;22.02;84.74
65997;BME280;52765;52.258;21.052;2023-09-19T08:29:24;99869.16;;;22.04;84.62
65997;BME280;52765;52.258;21.052;2023-09-19T08:31:57;99876.81;;;22.02;84.93
65997;BME280;52765;52.258;21.052;2023-09-19T08:34:25;99876.53;;;22.03;85.48
65997;BME280;52765;52.258;21.052;2023-09-19T08:36:54;99874.31;;;21.88;86.68
65997;BME280;52765;52.258;21.052;2023-09-19T08:39:23;99873.00;;;21.91;86.03
65997;BME280;52765;52.258;21.052;2023-09-19T08:41:49;99877.94;;;21.77;87.40
65997;BME280;52765;52.258;21.052;2023-09-19T08:44:15;99880.59;;;21.36;90.15
65997;BME280;52765;52.258;21.052;2023-09-19T08:46:41;99882.28;;;21.02;91.89
65997;BME280;52765;52.258;21.052;2023-09-19T08:49:33;99885.59;;;20.92;93.31
65997;BME280;52765;52.258;21.052;2023-09-19T08:52:12;99881.44;;;21.01;93.01
65997;BME280;52765;52.258;21.052;2023-09-19T08:54:40;99886.66;;;21.03;92.75
65997;BME280;52765;52.258;21.052;2023-09-19T08:57:07;99881.53;;;21.06;92.73
65997;BME280;52765;52.258;21.052;2023-09-19T08:59:38;99876.94;;;21.07;93.41
65997;BME280;52765;52.258;21.052;2023-09-19T09:02:11;99868.59;;;21.14;91.87
65997;BME280;52765;52.258;21.052;2023-09-19T09:04:40;99879.53;;;21.02;92.96
65997;BME280;52765;52.258;21.052;2023-09-19T09:07:10;99879.31;;;21.03;93.62
65997;BME280;52765;52.258;21.052;2023-09-19T09:09:37;99882.53;;;21.12;93.09
65997;BME280;52765;52.258;21.052;2023-09-19T09:12:04;99885.25;;;21.12;93.37
65997;BME280;52765;52.258;21.052;2023-09-19T09:14:30;99879.19;;;21.10;93.58
65997;BME280;52765;52.258;21.052;2023-09-19T09:16:56;99881.19;;;21.15;93.66
65997;BME280;52765;52.258;21.052;2023-09-19T09:19:24;99892.53;;;21.18;94.01
65997;BME280;52765;52.258;21.052;2023-09-19T09:21:51;99899.41;;;21.09;94.96
65997;BME280;52765;52.258;21.052;2023-09-19T09:24:26;99898.81;;;20.83;96.87
65997;BME280;52765;52.258;21.052;2023-09-19T09:26:55;99905.09;;;20.72;98.05
65997;BME280;52765;52.258;21.052;2023-09-19T09:29:41;99914.28;;;20.59;99.93
65997;BME280;52765;52.258;21.052;2023-09-19T09:34:50;99933.25;;;20.12;100.00
65997;BME280;52765;52.258;21.052;2023-09-19T09:37:19;99930.78;;;19.92;100.00
65997;BME280;52765;52.258;21.052;2023-09-19T09:39:56;99934.66;;;19.84;100.00
65997;BME280;52765;52.258;21.052;2023-09-19T09:42:30;99926.63;;;19.64;100.00
65997;BME280;52765;52.258;21.052;2023-09-19T09:48:00;99951.16;;;19.27;100.00
65997;BME280;52765;52.258;21.052;2023-09-19T09:50:32;99956.69;;;19.20;100.00
65997;BME280;52765;52.258;21.052;2023-09-19T09:53:28;99952.34;;;19.13;100.00
65997;BME280;52765;52.258;21.052;2023-09-19T09:58:24;99949.16;;;18.91;100.00
65997;BME280;52765;52.258;21.052;2023-09-19T10:00:58;99951.72;;;18.85;100.00
65997;BME280;52765;52.258;21.052;2023-09-19T10:03:32;99954.19;;;18.94;100.00
65997;BME280;52765;52.258;21.052;2023-09-19T10:05:59;99946.38;;;18.97;100.00
65997;BME280;52765;52.258;21.052;2023-09-19T10:08:35;99959.47;;;18.89;100.00
65997;BME280;52765;52.258;21.052;2023-09-19T10:11:15;99962.22;;;18.82;100.00
65997;BME280;52765;52.258;21.052;2023-09-19T10:13:42;99964.56;;;18.72;100.00
65997;BME280;52765;52.258;21.052;2023-09-19T10:16:11;99961.19;;;18.76;100.00
65997;BME280;52765;52.258;21.052;2023-09-19T10:18:40;99970.19;;;18.77;100.00
65997;BME280;52765;52.258;21.052;2023-09-19T10:21:09;99975.84;;;18.82;100.00
65997;BME280;52765;52.258;21.052;2023-09-19T10:23:36;99978.56;;;18.89;100.00
65997;BME280;52765;52.258;21.052;2023-09-19T10:26:03;99976.41;;;18.97;100.00
65997;BME280;52765;52.258;21.052;2023-09-19T10:28:30;99972.09;;;19.08;100.00
65997;BME280;52765;52.258;21.052;2023-09-19T10:30:57;99973.91;;;19.21;100.00
65997;BME280;52765;52.258;21.052;2023-09-19T10:33:25;99975.69;;;19.34;100.00
65997;BME280;52765;52.258;21.052;2023-09-19T10:35:51;99970.94;;;19.48;100.00
65997;BME280;52765;52.258;21.052;2023-09-19T10:38:24;99970.28;;;19.71;100.00
65997;BME280;52765;52.258;21.052;2023-09-19T10:40:52;99969.13;;;19.85;100.00
65997;BME280;52765;52.258;21.052;2023-09-19T10:43:26;99971.41;;;20.07;100.00
65997;BME280;52765;52.258;21.052;2023-09-19T10:45:53;99962.81;;;20.22;100.00
65997;BME280;52765;52.258;21.052;2023-09-19T10:48:22;99958.22;;;20.34;100.00
65997;BME280;52765;52.258;21.052;2023-09-19T10:51:10;99961.13;;;20.51;100.00
65997;BME280;52765;52.258;21.052;2023-09-19T10:56:17;99960.53;;;20.67;100.00
65997;BME280;52765;52.258;21.052;2023-09-19T10:58:44;99964.38;;;20.60;100.00
65997;BME280;52765;52.258;21.052;2023-09-19T11:01:11;99965.69;;;20.57;100.00
65997;BME280;52765;52.258;21.052;2023-09-19T11:03:44;99971.13;;;20.45;100.00
65997;BME280;52765;52.258;21.052;2023-09-19T11:06:19;99966.09;;;20.42;100.00
65997;BME280;52765;52.258;21.052;2023-09-19T11:14:29;99974.00;;;20.50;100.00
65997;BME280;52765;52.258;21.052;2023-09-19T11:30:50;99982.34;;;20.07;100.00
65997;BME280;52765;52.258;21.052;2023-09-19T11:33:38;99972.88;;;20.21;100.00
65997;BME280;52765;52.258;21.052;2023-09-19T11:36:13;99979.28;;;20.33;100.00
65997;BME280;52765;52.258;21.052;2023-09-19T11:49:17;99981.94;;;20.03;100.00
65997;BME280;52765;52.258;21.052;2023-09-19T11:51:50;99981.78;;;19.98;100.00
65997;BME280;52765;52.258;21.052;2023-09-19T11:54:17;99987.25;;;19.98;100.00
65997;BME280;52765;52.258;21.052;2023-09-19T11:56:45;99989.53;;;20.01;100.00
65997;BME280;52765;52.258;21.052;2023-09-19T11:59:11;99988.19;;;20.10;100.00
65997;BME280;52765;52.258;21.052;2023-09-19T12:01:39;99985.50;;;20.22;100.00
65997;BME280;52765;52.258;21.052;2023-09-19T12:04:11;99996.59;;;20.27;100.00
65997;BME280;52765;52.258;21.052;2023-09-19T12:06:37;100006.63;;;20.33;100.00
65997;BME280;52765;52.258;21.052;2023-09-19T12:09:04;99998.47;;;20.45;100.00
65997;BME280;52765;52.258;21.052;2023-09-19T12:11:41;99993.00;;;20.64;100.00
65997;BME280;52765;52.258;21.052;2023-09-19T12:14:09;99993.53;;;20.84;100.00
65997;BME280;52765;52.258;21.052;2023-09-19T12:16:34;100001.06;;;21.01;100.00
65997;BME280;52765;52.258;21.052;2023-09-19T12:19:22;100014.75;;;21.01;100.00
65997;BME280;52765;52.258;21.052;2023-09-19T12:21:55;100009.97;;;20.96;100.00
65997;BME280;52765;52.258;21.052;2023-09-19T12:24:23;100007.94;;;20.92;100.00
65997;BME280;52765;52.258;21.052;2023-09-19T12:26:51;100015.09;;;20.93;100.00
65997;BME280;52765;52.258;21.052;2023-09-19T12:29:21;100024.81;;;20.77;100.00
65997;BME280;52765;52.258;21.052;2023-09-19T12:31:54;100018.59;;;20.69;100.00
65997;BME280;52765;52.258;21.052;2023-09-19T12:34:27;100019.56;;;20.57;100.00
65997;BME280;52765;52.258;21.052;2023-09-19T12:37:05;100022.72;;;20.42;100.00
65997;BME280;52765;52.258;21.052;2023-09-19T12:39:43;100020.44;;;20.39;100.00
65997;BME280;52765;52.258;21.052;2023-09-19T12:42:10;100027.19;;;20.36;100.00
65997;BME280;52765;52.258;21.052;2023-09-19T12:44:41;100028.50;;;20.33;100.00
65997;BME280;52765;52.258;21.052;2023-09-19T12:47:16;100024.69;;;20.34;100.00
65997;BME280;52765;52.258;21.052;2023-09-19T12:50:11;100029.34;;;20.34;100.00
65997;BME280;52765;52.258;21.052;2023-09-19T12:52:51;100031.00;;;20.17;100.00
65997;BME280;52765;52.258;21.052;2023-09-19T12:55:26;100023.56;;;20.05;100.00
65997;BME280;52765;52.258;21.052;2023-09-19T13:00:33;100022.13;;;20.03;100.00
65997;BME280;52765;52.258;21.052;2023-09-19T13:05:59;100020.13;;;20.10;100.00
65997;BME280;52765;52.258;21.052;2023-09-19T13:08:30;100020.91;;;20.17;100.00
65997;BME280;52765;52.258;21.052;2023-09-19T13:11:12;100019.59;;;20.20;100.00
65997;BME280;52765;52.258;21.052;2023-09-19T13:14:12;100019.59;;;20.20;100.00
65997;BME280;52765;52.258;21.052;2023-09-19T13:17:12;100016.78;;;20.26;100.00
65997;BME280;52765;52.258;21.052;2023-09-19T13:19:51;100018.69;;;20.26;100.00
65997;BME280;52765;52.258;21.052;2023-09-19T13:22:39;100018.47;;;20.27;100.00
65997;BME280;52765;52.258;21.052;2023-09-19T13:25:08;100022.03;;;20.28;100.00
65997;BME280;52765;52.258;21.052;2023-09-19T13:27:39;100019.75;;;20.25;100.00
65997;BME280;52765;52.258;21.052;2023-09-19T13:30:05;100018.78;;;20.19;100.00
65997;BME280;52765;52.258;21.052;2023-09-19T13:32:32;100027.81;;;20.20;100.00
65997;BME280;52765;52.258;21.052;2023-09-19T13:34:58;100023.88;;;20.15;100.00
65997;BME280;52765;52.258;21.052;2023-09-19T13:37:23;100025.28;;;20.18;100.00
65997;BME280;52765;52.258;21.052;2023-09-19T13:39:49;100022.72;;;20.23;100.00
65997;BME280;52765;52.258;21.052;2023-09-19T13:42:14;100021.22;;;20.27;100.00
65997;BME280;52765;52.258;21.052;2023-09-19T13:44:41;100026.97;;;20.38;100.00
65997;BME280;52765;52.258;21.052;2023-09-19T13:47:07;100035.09;;;20.44;100.00
65997;BME280;52765;52.258;21.052;2023-09-19T13:49:35;100028.78;;;20.44;100.00
65997;BME280;52765;52.258;21.052;2023-09-19T13:52:03;100033.41;;;20.43;100.00
65997;BME280;52765;52.258;21.052;2023-09-19T13:54:30;100030.66;;;20.43;100.00
65997;BME280;52765;52.258;21.052;2023-09-19T13:56:55;100032.34;;;20.44;100.00